Flight Track Log - Related Links

Times and Time Zones

All times are in EDT time to prevent confusion due to time zone crossing. See the N570ML flight status page for this flight to view local times or setup timezone preferences in your user account.

Time Position Orientation Groundspeed Altitude Reporting Facility
EDT Latitude Longitude Course Direction KTS MPH feet Rate Location/Type
Sun 09:35:53 PM 33.6825 -85.7364 66° East 255 293 4,600  Level Atlanta Center
Sun 09:36:57 PM 33.7356 -85.6650 48° Northeast 271 312 5,000 871 Climbing Atlanta Center
Sun 09:37:57 PM 33.7114 -85.5969 113° Southeast 194 223 6,400 2,150 Climbing Atlanta Center
Sun 09:38:57 PM 33.6303 -85.5733 166° South 222 255 9,300 2,450 Climbing Atlanta Center
Sun 09:39:00 PM 33.8430 -85.1775 66° East  Level Estimated
Sun 09:39:57 PM 33.5514 -85.5444 163° South 274 315 11,300  Level Atlanta Center
Sun 09:40:57 PM 33.4875 -85.4686 135° Southeast 322 371 12,800 1,550 Climbing Atlanta Center
Sun 09:41:57 PM 33.4825 -85.3439 93° East 344 396 14,400 1,550 Climbing Atlanta Center
Sun 09:42:57 PM 33.4881 -85.2119 87° East 372 428 15,900 1,500 Climbing Atlanta Center
Sun 09:43:57 PM 33.4997 -85.0775 84° East 397 457 17,400 1,550 Climbing Atlanta Center
Sun 09:44:57 PM 33.5258 -84.9458 77° East 406 467 19,000 1,550 Climbing Atlanta Center
Sun 09:45:57 PM 33.5539 -84.8117 76° East 411 473 20,500 1,000 Climbing Atlanta Center
Sun 09:46:57 PM 33.5819 -84.6722 76° East 419 482 21,000 600 Climbing Atlanta Center
Sun 09:47:57 PM 33.6117 -84.5278 76° East 431 496 21,700 500 Climbing Atlanta Center
Sun 09:48:57 PM 33.6414 -84.3806 76° East 443 510 22,000 300 Climbing Atlanta Center
Sun 09:49:57 PM 33.6772 -84.2336 74° East 453 521 22,300 1,000 Climbing Atlanta Center
Sun 09:50:57 PM 33.7253 -84.0936 68° East 462 532 24,000 1,600 Climbing Atlanta Center
Sun 09:51:57 PM 33.7650 -83.9564 71° East 442 509 25,500 1,150 Climbing Atlanta Center
Sun 09:52:57 PM 33.7983 -83.8364 71° East 429 494 26,300 750 Climbing Atlanta Center
Sun 09:53:57 PM 33.8356 -83.6986 72° East 429 494 27,000 350 Climbing Atlanta Center
Sun 09:54:57 PM 33.8747 -83.5558 72° East 435 501 27,000  Level Atlanta Center
Sun 09:55:57 PM 33.9158 -83.4106 71° East 451 519 27,000  Level Atlanta Center
Sun 09:56:57 PM 33.9547 -83.2650 72° East 456 525 27,000 -100 Level Atlanta Center
Sun 09:57:57 PM 33.9953 -83.1192 71° East 456 525 26,800 -650 Descending Atlanta Center
Sun 09:58:57 PM 34.0275 -82.9811 74° East 443 510 25,700 -1,050 Descending Atlanta Center
Sun 09:59:57 PM 34.0661 -82.8528 70° East 416 479 24,700 -850 Descending Atlanta Center
Sun 10:00:57 PM 34.1064 -82.7117 71° East 399 459 24,000 -350 Descending Atlanta Center
Sun 10:01:57 PM 34.1303 -82.6108 74° East 394 453 24,000  Level Atlanta Center
Sun 10:02:57 PM 34.1661 -82.4747 72° East 387 445 24,000  Level Atlanta Center
Sun 10:03:57 PM 34.2000 -82.3458 72° East 387 445 24,000 -200 Level Atlanta Center
Sun 10:04:57 PM 34.2336 -82.2147 73° East 392 451 23,600 -1,200 Descending Atlanta Center
Sun 10:05:57 PM 34.2944 -82.1028 57° Northeast 397 457 21,600 -1,700 Descending Atlanta Center
Sun 10:06:57 PM 34.3661 -82.0106 47° Northeast 378 435 20,200 -1,250 Descending Atlanta Center
Sun 10:07:57 PM 34.4333 -81.9233 47° Northeast 364 419 19,100 -1,100 Descending Atlanta Center
Sun 10:08:57 PM 34.5008 -81.8383 46° Northeast 347 399 18,000 -1,600 Descending Atlanta Center
Sun 10:09:57 PM 34.5703 -81.7483 47° Northeast 342 394 15,900 -2,194 Descending Atlanta Center
Sun 10:10:30 PM 34.6108 -81.6992 45° Northeast 347 399 14,600 -2,200 Descending Atlanta Center
Sun 10:10:57 PM 34.6333 -81.6708 46° Northeast 341 392 13,700 -1,655 Descending Atlanta Center
Sun 10:11:57 PM 34.7028 -81.5881 44° Northeast 317 365 12,200 -900 Descending Atlanta Center
Sun 10:12:57 PM 34.7597 -81.5131 47° Northeast 305 351 11,900 -450 Descending Atlanta Center
Sun 10:13:57 PM 34.8164 -81.4353 48° Northeast 305 351 11,300 -1,250 Descending Atlanta Center
Sun 10:14:57 PM 34.8458 -81.3508 67° East 278 320 9,400 -1,150 Descending Atlanta Center
Sun 10:15:57 PM 34.8586 -81.2719 79° East 266 306 9,000 -200 Descending Atlanta Center
Sun 10:16:57 PM 34.8650 -81.1858 85° East 261 300 9,000  Level Atlanta Center
Sun 10:17:57 PM 34.8714 -81.0969 85° East 256 295 9,000  Level Atlanta Center
Sun 10:18:12 PM 34.8728 -81.0692 87° East 265 305 9,000 -400 Level Atlanta Center
Sun 10:18:57 PM 34.8733 -81.0058 89° East 256 295 8,600 -1,143 Descending Atlanta Center
Sun 10:19:57 PM 34.8794 -80.9169 85° East 256 295 7,000 -1,714 Descending Atlanta Center
Sun 10:20:14 PM 34.8786 -80.8867 92° East 247 284 6,400 -769 Descending Atlanta Center
Sun 10:21:15 PM 34.8831 -80.8106 86° East 224 258 6,000 -197 Descending Atlanta Center
Sun 10:22:16 PM 34.8872 -80.7344 86° East 226 260 6,000  Level Atlanta Center
Sun 10:23:16 PM 34.8894 -80.6658 88° East 194 223 6,000 -50 Level Atlanta Center
Sun 10:24:17 PM 34.9086 -80.6017 70° East 209 241 5,900 -828 Descending Atlanta Center
Sun 10:25:12 PM 34.9733 -80.5992 North 266 306 4,400 -1,500 Descending Atlanta Center
Sun 10:26:13 PM 35.0383 -80.6192 346° North 249 287 3,000 -689 Descending Atlanta Center
Sun 10:27:14 PM 35.1036 -80.6369 347° North 224 258 3,000  Level Atlanta Center
Sun 10:28:20 PM 35.1669 -80.6672 339° North 227 261 3,000 -236 Level Atlanta Center
Sun 10:29:21 PM 35.1878 -80.7400 289° West 239 275 2,500 -259 Descending Atlanta Center
Sun 10:30:16 PM 35.2381 -80.7458 355° North 188 216 2,500  Level Atlanta Center
Sun 10:31:23 PM 35.2858 -80.7361 North 140 161 2,500 -516 Level Atlanta Center
Sun 10:32:24 PM 35.3272 -80.7244 13° North 150 173 1,400 -730 Descending Atlanta Center
Sun 10:33:18 PM 35.3583 -80.7181 10° North 146 168 1,100 -333 Descending Atlanta Center

Login

Don't have an account? Register now (free) for customized features, flight alerts, and more!